createdAt,value
2022-08-20T00:02:16.621Z,11.00
2022-08-20T00:04:45.197Z,9.80
2022-08-20T00:07:14.059Z,9.90
2022-08-20T00:09:43.059Z,9.30
2022-08-20T00:12:12.835Z,9.80
2022-08-20T00:14:41.296Z,9.53
2022-08-20T00:17:10.985Z,8.90
2022-08-20T00:19:39.539Z,9.70
2022-08-20T00:22:07.768Z,9.57
2022-08-20T00:24:36.050Z,9.47
2022-08-20T00:27:04.344Z,10.23
2022-08-20T00:29:32.750Z,9.40
2022-08-20T00:32:01.403Z,9.40
2022-08-20T00:34:31.235Z,9.07
2022-08-20T00:36:59.365Z,8.50
2022-08-20T00:39:27.807Z,9.60
2022-08-20T00:41:57.088Z,9.30
2022-08-20T00:44:25.279Z,10.50
2022-08-20T00:46:55.203Z,10.40
2022-08-20T00:49:26.026Z,9.80
2022-08-20T00:52:07.988Z,9.37
2022-08-20T00:54:40.205Z,9.53
2022-08-20T00:57:12.978Z,9.50
2022-08-20T00:59:43.414Z,8.97
2022-08-20T01:02:17.738Z,9.50
2022-08-20T01:04:48.722Z,8.57
2022-08-20T01:07:20.651Z,10.17
2022-08-20T01:09:58.438Z,9.50
2022-08-20T01:12:29.808Z,9.80
2022-08-20T01:15:01.443Z,9.50
2022-08-20T01:17:33.036Z,9.90
2022-08-20T01:20:07.442Z,9.50
2022-08-20T01:23:03.595Z,9.23
2022-08-20T01:25:42.579Z,10.87
2022-08-20T01:28:11.682Z,9.30
2022-08-20T01:30:40.153Z,10.40
2022-08-20T01:33:08.391Z,10.13
2022-08-20T01:35:39.636Z,9.87
2022-08-20T01:38:08.286Z,10.70
2022-08-20T01:41:02.300Z,10.50
2022-08-20T01:43:32.222Z,9.80
2022-08-20T01:46:06.199Z,10.17
2022-08-20T01:48:35.009Z,11.03
2022-08-20T01:51:08.824Z,10.90
2022-08-20T01:53:41.766Z,10.00
2022-08-20T01:56:19.304Z,10.07
2022-08-20T01:58:55.929Z,10.20
2022-08-20T02:01:28.154Z,9.27
2022-08-20T02:03:57.920Z,10.40
2022-08-20T02:06:27.392Z,9.70
2022-08-20T02:08:58.178Z,9.97
2022-08-20T02:11:29.079Z,10.23
2022-08-20T02:13:58.201Z,9.87
2022-08-20T02:16:31.295Z,9.90
2022-08-20T02:19:03.494Z,10.40
2022-08-20T02:21:33.924Z,9.90
2022-08-20T02:24:02.916Z,10.13
2022-08-20T02:26:32.927Z,10.20
2022-08-20T02:29:01.262Z,9.80
2022-08-20T02:31:34.214Z,9.30
2022-08-20T02:34:21.909Z,10.30
2022-08-20T02:36:50.851Z,9.67
2022-08-20T02:39:19.350Z,8.97
2022-08-20T02:41:50.728Z,10.10
2022-08-20T02:44:21.119Z,10.97
2022-08-20T02:46:51.858Z,10.30
2022-08-20T02:49:21.183Z,9.40
2022-08-20T02:51:49.832Z,9.40
2022-08-20T02:54:20.313Z,8.90
2022-08-20T02:56:50.000Z,10.10
2022-08-20T02:59:19.644Z,8.90
2022-08-20T03:01:59.684Z,11.30
2022-08-20T03:04:29.351Z,10.10
2022-08-20T03:06:58.245Z,10.30
2022-08-20T03:09:26.487Z,11.50
2022-08-20T03:11:56.032Z,9.90
2022-08-20T03:14:24.318Z,11.23
2022-08-20T03:16:52.616Z,10.70
2022-08-20T03:19:20.919Z,10.77
2022-08-20T03:21:49.077Z,10.43
2022-08-20T03:24:17.582Z,10.60
2022-08-20T03:26:45.942Z,10.20
2022-08-20T03:29:15.487Z,10.90
2022-08-20T03:31:43.834Z,10.63
2022-08-20T03:34:12.018Z,10.23
2022-08-20T03:36:40.236Z,10.63
2022-08-20T03:39:13.301Z,10.10
2022-08-20T03:41:41.780Z,10.40
2022-08-20T03:44:10.289Z,10.33
2022-08-20T03:46:40.179Z,11.07
2022-08-20T03:49:08.427Z,11.27
2022-08-20T03:51:57.238Z,11.00
2022-08-20T03:54:24.864Z,11.20
2022-08-20T03:57:00.581Z,11.83
2022-08-20T03:59:28.740Z,12.33
2022-08-20T04:01:58.434Z,12.60
2022-08-20T04:04:26.628Z,11.83
2022-08-20T04:06:55.933Z,11.00
2022-08-20T04:09:24.404Z,10.47
2022-08-20T04:12:00.316Z,11.10
2022-08-20T04:14:29.305Z,13.40
2022-08-20T04:16:59.656Z,12.30
2022-08-20T04:19:32.424Z,11.80
2022-08-20T04:22:02.526Z,11.63
2022-08-20T04:24:32.167Z,11.70
2022-08-20T04:27:02.850Z,11.13
2022-08-20T04:29:32.590Z,10.70
2022-08-20T04:32:06.019Z,10.40
2022-08-20T04:34:35.497Z,11.10
2022-08-20T04:37:04.221Z,10.90
2022-08-20T04:39:32.578Z,9.57
2022-08-20T04:41:59.938Z,11.13
2022-08-20T04:44:28.938Z,10.33
2022-08-20T04:46:58.063Z,9.80
2022-08-20T04:49:28.070Z,9.03
2022-08-20T04:51:56.738Z,8.67
2022-08-20T04:54:25.055Z,9.13
2022-08-20T04:56:53.279Z,9.77
2022-08-20T04:59:21.580Z,9.53
2022-08-20T05:01:50.062Z,10.60
2022-08-20T05:04:18.374Z,8.80
2022-08-20T05:06:51.059Z,8.73
2022-08-20T05:09:19.306Z,8.37
2022-08-20T05:11:47.507Z,8.47
2022-08-20T05:14:15.795Z,8.97
2022-08-20T05:16:43.976Z,8.23
2022-08-20T05:19:14.180Z,8.20
2022-08-20T05:21:42.792Z,9.70
2022-08-20T05:24:13.000Z,10.67
2022-08-20T05:26:41.604Z,10.63
2022-08-20T05:29:10.059Z,10.93
2022-08-20T05:31:39.421Z,11.17
2022-08-20T05:34:11.398Z,11.87
2022-08-20T05:36:41.661Z,12.07
2022-08-20T05:39:11.777Z,10.27
2022-08-20T05:41:41.011Z,10.30
2022-08-20T05:44:13.496Z,9.55
2022-08-20T05:46:43.814Z,10.82
2022-08-20T05:49:13.639Z,9.50
2022-08-20T05:51:41.862Z,10.18
2022-08-20T05:54:11.550Z,10.23
2022-08-20T05:56:40.096Z,10.15
2022-08-20T05:59:10.331Z,10.05
2022-08-20T06:01:40.463Z,10.85
2022-08-20T06:07:20.878Z,9.13
2022-08-20T06:09:51.351Z,10.27
2022-08-20T06:12:19.522Z,9.30
2022-08-20T06:14:48.507Z,8.70
2022-08-20T06:17:22.328Z,8.52
2022-08-20T06:19:51.410Z,8.98
2022-08-20T06:22:24.837Z,8.73
2022-08-20T06:24:57.046Z,8.85
2022-08-20T06:27:26.432Z,10.13
2022-08-20T06:29:55.394Z,8.48
2022-08-20T06:32:32.288Z,8.10
2022-08-20T06:35:02.273Z,9.75
2022-08-20T06:37:33.066Z,10.70
2022-08-20T06:40:06.767Z,9.07
2022-08-20T06:42:35.106Z,9.48
2022-08-20T06:45:05.064Z,9.55
2022-08-20T06:47:33.906Z,9.45
2022-08-20T06:50:02.226Z,9.75
2022-08-20T06:52:51.613Z,10.75
2022-08-20T06:55:20.339Z,9.02
2022-08-20T06:57:49.110Z,9.55
2022-08-20T07:00:21.223Z,10.00
2022-08-20T07:02:49.516Z,9.75
2022-08-20T07:05:17.757Z,8.77
2022-08-20T07:07:47.646Z,10.00
2022-08-20T07:10:17.145Z,9.30
2022-08-20T07:12:47.043Z,10.15
2022-08-20T07:15:16.283Z,8.80
2022-08-20T07:17:49.552Z,10.52
2022-08-20T07:20:17.771Z,8.45
2022-08-20T07:22:45.964Z,9.60
2022-08-20T07:25:16.710Z,9.32
2022-08-20T07:27:47.011Z,10.10
2022-08-20T07:30:55.966Z,9.27
2022-08-20T07:33:24.188Z,8.63
2022-08-20T07:35:52.837Z,9.20
2022-08-20T07:38:25.354Z,9.02
2022-08-20T07:40:55.683Z,8.90
2022-08-20T07:43:25.931Z,10.10
2022-08-20T07:45:56.473Z,10.27
2022-08-20T07:48:32.068Z,9.40
2022-08-20T07:51:03.555Z,9.23
2022-08-20T07:53:35.659Z,9.30
2022-08-20T07:56:06.895Z,9.77
2022-08-20T07:58:37.724Z,10.40
2022-08-20T08:01:06.860Z,10.73
2022-08-20T08:03:48.910Z,9.77
2022-08-20T08:06:29.848Z,9.10
2022-08-20T08:09:03.237Z,8.43
2022-08-20T08:11:34.413Z,10.53
2022-08-20T08:14:06.967Z,9.73
2022-08-20T08:16:35.725Z,9.53
2022-08-20T08:19:07.694Z,9.63
2022-08-20T08:21:36.150Z,10.13
2022-08-20T08:24:04.791Z,10.47
2022-08-20T08:26:32.940Z,9.50
2022-08-20T08:29:01.135Z,9.30
2022-08-20T08:31:30.760Z,9.27
2022-08-20T08:33:58.870Z,8.83
2022-08-20T08:36:27.509Z,9.17
2022-08-20T08:38:56.680Z,8.33
2022-08-20T08:41:31.380Z,9.03
2022-08-20T08:44:06.121Z,9.27
2022-08-20T08:46:41.836Z,8.83
2022-08-20T08:49:14.038Z,9.83
2022-08-20T08:51:46.407Z,8.10
2022-08-20T08:54:17.828Z,9.37
2022-08-20T08:56:49.889Z,7.83
2022-08-20T08:59:20.346Z,9.00
2022-08-20T09:01:54.416Z,9.33
2022-08-20T09:04:31.854Z,9.53
2022-08-20T09:07:02.967Z,9.53
2022-08-20T09:09:34.104Z,9.17
2022-08-20T09:12:06.307Z,9.33
2022-08-20T09:14:35.000Z,10.10
2022-08-20T09:17:05.113Z,10.70
2022-08-20T09:19:33.313Z,9.17
2022-08-20T09:22:09.204Z,9.30
2022-08-20T09:24:37.875Z,9.53
2022-08-20T09:27:06.425Z,10.43
2022-08-20T09:29:34.656Z,10.53
2022-08-20T09:32:11.111Z,9.93
2022-08-20T09:34:39.421Z,10.40
2022-08-20T09:37:08.040Z,11.20
2022-08-20T09:39:36.573Z,10.50
2022-08-20T09:42:09.503Z,11.73
2022-08-20T09:44:37.962Z,11.60
2022-08-20T09:47:08.106Z,12.57
2022-08-20T09:49:37.426Z,11.47
2022-08-20T09:52:08.823Z,12.53
2022-08-20T09:54:38.790Z,11.80
2022-08-20T09:57:13.148Z,10.23
2022-08-20T09:59:41.662Z,11.53
2022-08-20T10:02:11.321Z,12.13
2022-08-20T10:04:39.558Z,12.30
2022-08-20T10:07:10.268Z,11.27
2022-08-20T10:09:39.331Z,11.70
2022-08-20T10:12:08.920Z,12.20
2022-08-20T10:14:37.247Z,12.33
2022-08-20T10:17:05.563Z,13.00
2022-08-20T10:19:35.135Z,11.90
2022-08-20T10:22:03.445Z,11.57
2022-08-20T10:24:31.992Z,12.20
2022-08-20T10:27:01.391Z,12.07
2022-08-20T10:29:31.059Z,11.43
2022-08-20T10:32:09.446Z,10.80
2022-08-20T10:34:39.293Z,10.23
2022-08-20T10:37:07.618Z,11.33
2022-08-20T10:39:36.283Z,10.87
2022-08-20T10:42:04.992Z,12.50
2022-08-20T10:44:33.134Z,11.17
2022-08-20T10:47:15.311Z,12.57
2022-08-20T10:49:44.917Z,12.17
2022-08-20T10:52:13.152Z,12.87
2022-08-20T10:54:42.485Z,12.43
2022-08-20T10:57:14.718Z,13.10
2022-08-20T10:59:44.671Z,14.03
2022-08-20T11:02:13.377Z,13.33
2022-08-20T11:04:42.246Z,12.70
2022-08-20T11:07:20.652Z,12.10
2022-08-20T11:09:50.343Z,11.40
2022-08-20T11:12:20.945Z,11.87
2022-08-20T11:14:50.352Z,12.50
2022-08-20T11:17:22.132Z,12.70
2022-08-20T11:19:50.728Z,12.80
2022-08-20T11:22:20.314Z,12.57
2022-08-20T11:24:49.065Z,11.90
2022-08-20T11:27:25.044Z,12.67
2022-08-20T11:29:54.202Z,12.43
2022-08-20T11:32:23.198Z,12.13
2022-08-20T11:34:52.498Z,11.80
2022-08-20T11:37:25.421Z,11.63
2022-08-20T11:39:54.212Z,11.47
2022-08-20T11:42:22.371Z,11.40
2022-08-20T11:44:50.530Z,11.33
2022-08-20T11:47:23.634Z,11.60
2022-08-20T11:49:59.723Z,11.87
2022-08-20T11:52:30.353Z,11.30
2022-08-20T11:54:59.337Z,11.10
2022-08-20T11:57:30.475Z,11.50
2022-08-20T12:00:01.130Z,11.33
2022-08-20T12:02:29.992Z,11.10
2022-08-20T12:04:58.469Z,10.70
2022-08-20T12:07:28.546Z,11.57
2022-08-20T12:09:56.989Z,12.30
2022-08-20T12:12:25.559Z,11.33
2022-08-20T12:14:54.705Z,11.07
2022-08-20T12:17:26.843Z,11.50
2022-08-20T12:19:59.361Z,12.57
2022-08-20T12:22:29.442Z,10.50
2022-08-20T12:24:58.041Z,11.27
2022-08-20T12:27:28.020Z,10.60
2022-08-20T12:29:58.739Z,11.13
2022-08-20T12:32:30.085Z,11.20
2022-08-20T12:34:59.486Z,10.67
2022-08-20T12:37:31.619Z,10.50
2022-08-20T12:40:01.930Z,11.60
2022-08-20T12:42:31.562Z,11.10
2022-08-20T12:45:00.267Z,10.70
2022-08-20T12:47:30.293Z,10.50
2022-08-20T12:50:01.547Z,10.10
2022-08-20T12:52:32.333Z,10.63
2022-08-20T12:55:00.921Z,9.43
2022-08-20T12:57:32.211Z,10.13
2022-08-20T13:00:03.579Z,9.70
2022-08-20T13:02:32.046Z,9.20
2022-08-20T13:05:04.547Z,9.60
2022-08-20T13:07:35.770Z,9.10
2022-08-20T13:10:05.418Z,9.77
2022-08-20T13:12:33.719Z,9.07
2022-08-20T13:15:01.890Z,9.60
2022-08-20T13:17:38.643Z,10.00
2022-08-20T13:20:10.733Z,10.40
2022-08-20T13:22:40.331Z,9.03
2022-08-20T13:25:09.866Z,10.50
2022-08-20T13:27:38.928Z,9.80
2022-08-20T13:30:09.162Z,9.30
2022-08-20T13:32:37.276Z,10.97
2022-08-20T13:35:06.080Z,9.60
2022-08-20T13:37:34.909Z,9.63
2022-08-20T13:40:06.158Z,9.30
2022-08-20T13:42:34.769Z,10.40
2022-08-20T13:45:03.932Z,10.17
2022-08-20T13:47:34.352Z,10.27
2022-08-20T13:50:06.769Z,9.57
2022-08-20T13:52:35.623Z,8.93
2022-08-20T13:55:07.395Z,9.63
2022-08-20T13:57:36.793Z,10.60
2022-08-20T14:00:08.583Z,9.17
2022-08-20T14:02:37.086Z,9.83
2022-08-20T14:05:05.463Z,9.57
2022-08-20T14:07:33.653Z,10.10
2022-08-20T14:10:04.819Z,11.23
2022-08-20T14:12:34.392Z,10.60
2022-08-20T14:15:02.725Z,9.53
2022-08-20T14:17:34.008Z,10.77
2022-08-20T14:20:06.990Z,10.30
2022-08-20T14:22:36.859Z,10.33
2022-08-20T14:25:05.869Z,10.90
2022-08-20T14:27:36.404Z,10.00
2022-08-20T14:30:08.150Z,10.03
2022-08-20T14:32:36.809Z,9.73
2022-08-20T14:35:05.536Z,10.27
2022-08-20T14:37:38.007Z,10.67
2022-08-20T14:40:09.592Z,9.83
2022-08-20T14:42:40.096Z,10.20
2022-08-20T14:45:10.400Z,9.20
2022-08-20T14:47:40.669Z,10.10
2022-08-20T14:50:13.189Z,9.63
2022-08-20T14:52:41.956Z,9.67
2022-08-20T14:55:13.264Z,10.03
2022-08-20T14:57:43.839Z,10.27
2022-08-20T15:00:17.898Z,9.90
2022-08-20T15:02:47.532Z,9.60
2022-08-20T15:05:16.376Z,9.77
2022-08-20T15:07:49.108Z,10.40
2022-08-20T15:10:22.051Z,9.20
2022-08-20T15:12:52.418Z,9.73
2022-08-20T15:15:21.422Z,9.33
2022-08-20T15:17:51.588Z,10.73
2022-08-20T15:20:21.929Z,9.93
2022-08-20T15:22:51.548Z,12.00
2022-08-20T15:25:22.125Z,9.77
2022-08-20T15:27:52.334Z,10.50
2022-08-20T15:30:23.537Z,9.70
2022-08-20T15:32:54.975Z,10.10
2022-08-20T15:35:23.895Z,9.87
2022-08-20T15:37:54.653Z,10.33
2022-08-20T15:40:33.798Z,9.70
2022-08-20T15:43:04.903Z,11.00
2022-08-20T15:45:36.434Z,10.13
2022-08-20T15:48:11.468Z,10.40
2022-08-20T15:51:21.568Z,9.80
2022-08-20T15:53:58.276Z,10.27
2022-08-20T15:56:44.871Z,10.80
2022-08-20T15:59:30.738Z,10.70
2022-08-20T16:02:08.913Z,10.47
2022-08-20T16:05:04.722Z,10.93
2022-08-20T16:07:42.193Z,11.83
2022-08-20T16:10:17.301Z,10.60
2022-08-20T16:12:50.998Z,11.90
2022-08-20T16:15:25.934Z,10.63
2022-08-20T16:18:02.186Z,11.30
2022-08-20T16:20:36.625Z,10.57
2022-08-20T16:23:05.126Z,11.67
2022-08-20T16:25:45.145Z,10.90
2022-08-20T16:28:23.815Z,11.07
2022-08-20T16:30:59.661Z,10.83
2022-08-20T16:33:32.987Z,10.27
2022-08-20T16:36:10.464Z,12.03
2022-08-20T16:38:44.353Z,11.23
2022-08-20T16:41:17.246Z,11.67
2022-08-20T16:43:53.937Z,11.37
2022-08-20T16:46:27.437Z,11.43
2022-08-20T16:48:58.513Z,11.70
2022-08-20T16:51:42.470Z,11.33
2022-08-20T16:54:11.748Z,11.50
2022-08-20T16:56:42.541Z,12.50
2022-08-20T16:59:18.376Z,11.43
2022-08-20T17:02:07.282Z,11.33
2022-08-20T17:04:58.661Z,11.90
2022-08-20T17:07:33.319Z,11.17
2022-08-20T17:10:18.163Z,13.43
2022-08-20T17:12:47.163Z,12.23
2022-08-20T17:15:27.849Z,12.03
2022-08-20T17:17:57.721Z,12.60
2022-08-20T17:20:29.110Z,12.77
2022-08-20T17:23:14.840Z,11.70
2022-08-20T17:25:43.184Z,12.37
2022-08-20T17:28:16.816Z,12.83
2022-08-20T17:30:45.774Z,11.83
2022-08-20T17:33:28.324Z,12.53
2022-08-20T17:35:59.587Z,11.30
2022-08-20T17:38:34.989Z,12.47
2022-08-20T17:41:11.889Z,12.70
2022-08-20T17:43:45.661Z,12.60
2022-08-20T17:46:17.579Z,12.70
2022-08-20T17:48:49.053Z,13.17
2022-08-20T17:51:19.647Z,13.47
2022-08-20T17:53:52.188Z,13.23
2022-08-20T17:56:23.870Z,14.33
2022-08-20T17:58:57.261Z,13.37
2022-08-20T18:01:27.947Z,13.57
2022-08-20T18:03:57.736Z,13.77
2022-08-20T18:06:33.912Z,13.80
2022-08-20T18:09:05.486Z,14.40
2022-08-20T18:11:39.613Z,15.23
2022-08-20T18:14:34.319Z,14.37
2022-08-20T18:17:16.818Z,14.67
2022-08-20T18:20:14.283Z,15.10
2022-08-20T18:22:49.678Z,13.27
2022-08-20T18:25:29.228Z,13.23
2022-08-20T18:28:06.202Z,14.00
2022-08-20T18:30:34.856Z,14.17
2022-08-20T18:33:07.567Z,14.97
2022-08-20T18:35:45.758Z,15.40
2022-08-20T18:38:28.432Z,15.17
2022-08-20T18:41:11.818Z,16.03
2022-08-20T18:43:40.820Z,15.47
2022-08-20T18:46:14.921Z,15.57
2022-08-20T18:48:59.370Z,15.97
2022-08-20T18:51:36.906Z,15.10
2022-08-20T18:54:05.999Z,14.70
2022-08-20T18:56:38.594Z,13.73
2022-08-20T18:59:13.072Z,13.67
2022-08-20T19:02:35.915Z,14.87
2022-08-20T19:05:07.118Z,13.37
2022-08-20T19:07:48.383Z,15.00
2022-08-20T19:10:48.605Z,13.50
2022-08-20T19:13:49.666Z,15.50
2022-08-20T19:16:21.263Z,15.67
2022-08-20T19:18:52.817Z,14.37
2022-08-20T19:21:26.435Z,14.63
2022-08-20T19:23:59.176Z,13.90
2022-08-20T19:26:31.317Z,13.43
2022-08-20T19:29:01.940Z,14.83
2022-08-20T19:31:34.430Z,12.53
2022-08-20T19:34:19.900Z,12.60
2022-08-20T19:36:55.742Z,13.87
2022-08-20T19:39:26.703Z,13.93
2022-08-20T19:41:59.045Z,12.20
2022-08-20T19:44:33.854Z,13.70
2022-08-20T19:47:03.445Z,13.40
2022-08-20T19:49:42.850Z,13.63
2022-08-20T19:52:27.766Z,13.97
2022-08-20T19:55:03.368Z,12.90
2022-08-20T19:57:32.743Z,13.10
2022-08-20T20:00:04.683Z,13.50
2022-08-20T20:02:36.638Z,13.07
2022-08-20T20:05:07.565Z,12.77
2022-08-20T20:07:39.895Z,13.83
2022-08-20T20:10:12.353Z,13.17
2022-08-20T20:12:40.774Z,14.03
2022-08-20T20:15:09.507Z,12.80
2022-08-20T20:17:38.018Z,13.90
2022-08-20T20:20:20.673Z,13.70
2022-08-20T20:22:52.905Z,13.93
2022-08-20T20:25:25.295Z,13.90
2022-08-20T20:27:55.617Z,12.80
2022-08-20T20:30:27.776Z,12.80
2022-08-20T20:32:58.269Z,13.70
2022-08-20T20:35:31.174Z,15.20
2022-08-20T20:38:03.524Z,15.00
2022-08-20T20:40:43.768Z,18.50
2022-08-20T20:43:23.865Z,18.63
2022-08-20T20:46:00.981Z,20.00
2022-08-20T20:48:32.841Z,20.40
2022-08-20T20:51:13.466Z,17.47
2022-08-20T20:53:53.225Z,16.67
2022-08-20T20:56:36.326Z,15.70
2022-08-20T20:59:07.445Z,16.53
2022-08-20T21:01:41.422Z,17.50
2022-08-20T21:04:21.336Z,17.40
2022-08-20T21:06:50.194Z,16.17
2022-08-20T21:09:19.048Z,16.43
2022-08-20T21:11:49.830Z,16.23
2022-08-20T21:14:18.790Z,16.80
2022-08-20T21:16:47.366Z,15.67
2022-08-20T21:19:19.926Z,15.50
2022-08-20T21:21:48.228Z,15.43
2022-08-20T21:24:16.495Z,15.60
2022-08-20T21:26:45.386Z,15.00
2022-08-20T21:29:17.907Z,15.00
2022-08-20T21:31:47.033Z,15.07
2022-08-20T21:34:17.477Z,15.17
2022-08-20T21:36:46.570Z,14.67
2022-08-20T21:39:14.848Z,14.07
2022-08-20T21:41:43.817Z,14.90
2022-08-20T21:44:17.751Z,14.80
2022-08-20T21:46:49.560Z,14.07
2022-08-20T21:49:19.606Z,14.87
2022-08-20T21:51:48.192Z,14.63
2022-08-20T21:54:16.487Z,15.60
2022-08-20T21:56:46.233Z,14.90
2022-08-20T21:59:17.754Z,13.43
2022-08-20T22:01:45.897Z,14.33
2022-08-20T22:04:14.231Z,13.97
2022-08-20T22:06:42.845Z,14.20
2022-08-20T22:09:11.331Z,15.67
2022-08-20T22:11:39.544Z,15.57
2022-08-20T22:14:10.056Z,13.50
2022-08-20T22:16:40.683Z,14.60
2022-08-20T22:19:16.258Z,13.30
2022-08-20T22:21:44.962Z,14.60
2022-08-20T22:24:15.059Z,13.93
2022-08-20T22:26:44.654Z,14.20
2022-08-20T22:29:13.563Z,13.93
2022-08-20T22:31:44.359Z,13.10
2022-08-20T22:34:14.229Z,13.63
2022-08-20T22:36:42.798Z,13.80
2022-08-20T22:39:11.441Z,12.93
2022-08-20T22:41:39.888Z,14.30
2022-08-20T22:44:08.082Z,14.17
2022-08-20T22:46:42.459Z,14.13
2022-08-20T22:49:18.830Z,14.00
2022-08-20T22:51:47.149Z,12.80
2022-08-20T22:54:21.186Z,13.13
2022-08-20T22:56:49.347Z,12.90
2022-08-20T22:59:20.206Z,13.63
2022-08-20T23:01:49.260Z,12.70
2022-08-20T23:04:25.549Z,13.57
2022-08-20T23:06:55.349Z,13.87
2022-08-20T23:09:23.888Z,12.73
2022-08-20T23:11:53.041Z,13.70
2022-08-20T23:14:21.790Z,14.73
2022-08-20T23:16:54.884Z,13.63
2022-08-20T23:19:27.779Z,13.70
2022-08-20T23:21:56.187Z,13.20
2022-08-20T23:24:24.344Z,13.13
2022-08-20T23:26:53.445Z,13.20
2022-08-20T23:29:25.812Z,14.37
2022-08-20T23:31:55.544Z,13.60
2022-08-20T23:34:23.737Z,13.30
2022-08-20T23:36:54.500Z,14.50
2022-08-20T23:39:23.312Z,13.77
2022-08-20T23:41:51.829Z,14.10
2022-08-20T23:44:26.291Z,13.73
2022-08-20T23:46:56.270Z,13.63
2022-08-20T23:49:24.468Z,13.50
2022-08-20T23:51:54.129Z,13.53
2022-08-20T23:54:22.646Z,13.70
2022-08-20T23:56:50.910Z,13.60
2022-08-20T23:59:19.636Z,14.30
